sensor_id;sensor_type;location;lat;lon;timestamp;pressure;altitude;pressure_sealevel;temperature;humidity
12182;BME280;6154;51.550;12.138;2024-02-15T00:00:09;100745.78;;;14.66;72.21
12182;BME280;6154;51.550;12.138;2024-02-15T00:02:37;100744.06;;;14.65;71.91
12182;BME280;6154;51.550;12.138;2024-02-15T00:05:23;100745.16;;;14.75;72.38
12182;BME280;6154;51.550;12.138;2024-02-15T00:07:51;100740.69;;;14.76;71.95
12182;BME280;6154;51.550;12.138;2024-02-15T00:10:20;100744.69;;;14.56;72.24
12182;BME280;6154;51.550;12.138;2024-02-15T00:12:52;100754.12;;;14.74;72.17
12182;BME280;6154;51.550;12.138;2024-02-15T00:15:20;100753.81;;;14.52;73.06
12182;BME280;6154;51.550;12.138;2024-02-15T00:17:47;100753.81;;;14.52;73.00
12182;BME280;6154;51.550;12.138;2024-02-15T00:20:15;100755.53;;;14.53;72.90
12182;BME280;6154;51.550;12.138;2024-02-15T00:22:44;100757.25;;;14.54;72.82
12182;BME280;6154;51.550;12.138;2024-02-15T00:25:12;100757.25;;;14.54;72.70
12182;BME280;6154;51.550;12.138;2024-02-15T00:27:42;100748.94;;;14.58;72.74
12182;BME280;6154;51.550;12.138;2024-02-15T00:30:11;100745.31;;;14.59;72.77
12182;BME280;6154;51.550;12.138;2024-02-15T00:32:39;100743.50;;;14.60;72.61
12182;BME280;6154;51.550;12.138;2024-02-15T00:35:08;100747.88;;;14.61;72.61
12182;BME280;6154;51.550;12.138;2024-02-15T00:37:36;100751.22;;;14.64;72.79
12182;BME280;6154;51.550;12.138;2024-02-15T00:40:05;100749.75;;;14.73;72.34
12182;BME280;6154;51.550;12.138;2024-02-15T00:42:34;100748.81;;;15.00;71.51
12182;BME280;6154;51.550;12.138;2024-02-15T00:45:04;100745.41;;;14.98;71.46
12182;BME280;6154;51.550;12.138;2024-02-15T00:47:32;100743.16;;;14.91;71.88
12182;BME280;6154;51.550;12.138;2024-02-15T00:50:01;100734.97;;;14.94;71.77
12182;BME280;6154;51.550;12.138;2024-02-15T00:52:30;100746.44;;;14.82;72.14
12182;BME280;6154;51.550;12.138;2024-02-15T00:54:58;100744.56;;;14.84;72.08
12182;BME280;6154;51.550;12.138;2024-02-15T00:57:26;100747.22;;;14.84;72.23
12182;BME280;6154;51.550;12.138;2024-02-15T00:59:54;100750.13;;;14.94;71.88
12182;BME280;6154;51.550;12.138;2024-02-15T01:02:24;100760.16;;;15.16;71.23
12182;BME280;6154;51.550;12.138;2024-02-15T01:04:52;100757.56;;;15.02;71.33
12182;BME280;6154;51.550;12.138;2024-02-15T01:07:25;100758.44;;;15.15;71.04
12182;BME280;6154;51.550;12.138;2024-02-15T01:09:55;100758.84;;;15.09;71.07
12182;BME280;6154;51.550;12.138;2024-02-15T01:12:29;100750.75;;;14.98;71.04
12182;BME280;6154;51.550;12.138;2024-02-15T01:14:58;100753.53;;;15.21;70.91
12182;BME280;6154;51.550;12.138;2024-02-15T01:17:31;100750.97;;;15.20;71.00
12182;BME280;6154;51.550;12.138;2024-02-15T01:19:59;100745.00;;;15.16;71.01
12182;BME280;6154;51.550;12.138;2024-02-15T01:22:29;100748.19;;;15.09;71.29
12182;BME280;6154;51.550;12.138;2024-02-15T01:24:57;100748.59;;;15.03;71.47
12182;BME280;6154;51.550;12.138;2024-02-15T01:27:25;100752.03;;;15.05;71.29
12182;BME280;6154;51.550;12.138;2024-02-15T01:29:57;100750.13;;;15.07;71.32
12182;BME280;6154;51.550;12.138;2024-02-15T01:32:24;100749.69;;;15.13;71.31
12182;BME280;6154;51.550;12.138;2024-02-15T01:34:54;100749.50;;;15.16;71.00
12182;BME280;6154;51.550;12.138;2024-02-15T01:37:22;100746.50;;;15.08;71.18
12182;BME280;6154;51.550;12.138;2024-02-15T01:39:51;100745.63;;;15.07;71.35
12182;BME280;6154;51.550;12.138;2024-02-15T01:42:19;100749.59;;;15.14;71.39
12182;BME280;6154;51.550;12.138;2024-02-15T01:44:47;100749.69;;;15.13;71.37
12182;BME280;6154;51.550;12.138;2024-02-15T01:47:17;100748.41;;;15.06;71.56
12182;BME280;6154;51.550;12.138;2024-02-15T01:49:47;100742.63;;;14.99;71.86
12182;BME280;6154;51.550;12.138;2024-02-15T01:52:17;100753.41;;;14.98;72.15
12182;BME280;6154;51.550;12.138;2024-02-15T01:54:45;100746.72;;;15.05;71.79
12182;BME280;6154;51.550;12.138;2024-02-15T01:57:14;100746.91;;;15.02;72.02
12182;BME280;6154;51.550;12.138;2024-02-15T01:59:43;100748.31;;;15.07;71.85
12182;BME280;6154;51.550;12.138;2024-02-15T02:02:14;100749.66;;;15.00;71.68
12182;BME280;6154;51.550;12.138;2024-02-15T02:04:45;100745.41;;;15.10;71.79
12182;BME280;6154;51.550;12.138;2024-02-15T02:07:13;100747.22;;;15.10;71.81
12182;BME280;6154;51.550;12.138;2024-02-15T02:09:46;100739.47;;;15.19;71.54
12182;BME280;6154;51.550;12.138;2024-02-15T02:12:14;100747.44;;;15.07;71.45
12182;BME280;6154;51.550;12.138;2024-02-15T02:14:42;100747.12;;;15.11;71.54
12182;BME280;6154;51.550;12.138;2024-02-15T02:17:11;100744.91;;;15.18;71.36
12182;BME280;6154;51.550;12.138;2024-02-15T02:19:41;100749.03;;;15.22;71.21
12182;BME280;6154;51.550;12.138;2024-02-15T02:22:11;100756.09;;;15.23;71.07
12182;BME280;6154;51.550;12.138;2024-02-15T02:24:57;100748.41;;;15.31;70.84
12182;BME280;6154;51.550;12.138;2024-02-15T02:27:26;100746.81;;;15.29;71.31
12182;BME280;6154;51.550;12.138;2024-02-15T02:29:54;100742.66;;;15.37;70.72
12182;BME280;6154;51.550;12.138;2024-02-15T02:32:23;100740.72;;;15.39;70.79
12182;BME280;6154;51.550;12.138;2024-02-15T02:34:52;100744.03;;;15.30;71.01
12182;BME280;6154;51.550;12.138;2024-02-15T02:37:24;100739.44;;;15.32;70.93
12182;BME280;6154;51.550;12.138;2024-02-15T02:39:52;100732.00;;;15.37;71.14
12182;BME280;6154;51.550;12.138;2024-02-15T02:42:22;100742.78;;;15.36;70.94
12182;BME280;6154;51.550;12.138;2024-02-15T02:44:50;100747.25;;;15.35;70.87
12182;BME280;6154;51.550;12.138;2024-02-15T02:47:18;100733.28;;;15.44;70.70
12182;BME280;6154;51.550;12.138;2024-02-15T02:49:46;100744.25;;;15.27;71.45
12182;BME280;6154;51.550;12.138;2024-02-15T02:52:14;100731.13;;;15.49;70.45
12182;BME280;6154;51.550;12.138;2024-02-15T02:54:42;100732.31;;;15.45;70.50
12182;BME280;6154;51.550;12.138;2024-02-15T02:57:10;100734.03;;;15.46;70.51
12182;BME280;6154;51.550;12.138;2024-02-15T02:59:40;100738.81;;;15.41;70.81
12182;BME280;6154;51.550;12.138;2024-02-15T03:02:10;100742.88;;;15.34;70.94
12182;BME280;6154;51.550;12.138;2024-02-15T03:04:39;100734.12;;;15.07;71.79
12182;BME280;6154;51.550;12.138;2024-02-15T03:07:08;100742.53;;;15.01;72.43
12182;BME280;6154;51.550;12.138;2024-02-15T03:09:36;100731.78;;;15.40;71.14
12182;BME280;6154;51.550;12.138;2024-02-15T03:12:04;100740.53;;;15.30;71.55
12182;BME280;6154;51.550;12.138;2024-02-15T03:14:33;100739.91;;;15.26;71.68
12182;BME280;6154;51.550;12.138;2024-02-15T03:17:04;100741.06;;;15.35;71.61
12182;BME280;6154;51.550;12.138;2024-02-15T03:19:33;100733.72;;;15.26;71.97
12182;BME280;6154;51.550;12.138;2024-02-15T03:22:01;100732.63;;;15.41;71.19
12182;BME280;6154;51.550;12.138;2024-02-15T03:24:29;100736.13;;;15.41;70.76
12182;BME280;6154;51.550;12.138;2024-02-15T03:26:57;100744.78;;;15.32;71.00
12182;BME280;6154;51.550;12.138;2024-02-15T03:29:25;100736.16;;;15.29;71.13
12182;BME280;6154;51.550;12.138;2024-02-15T03:31:53;100740.09;;;15.36;70.81
12182;BME280;6154;51.550;12.138;2024-02-15T03:34:23;100737.75;;;15.31;70.92
12182;BME280;6154;51.550;12.138;2024-02-15T03:36:53;100729.56;;;15.34;70.82
12182;BME280;6154;51.550;12.138;2024-02-15T03:39:21;100735.94;;;15.32;70.93
12182;BME280;6154;51.550;12.138;2024-02-15T03:41:50;100734.22;;;15.31;70.75
12182;BME280;6154;51.550;12.138;2024-02-15T03:44:20;100739.66;;;15.29;70.92
12182;BME280;6154;51.550;12.138;2024-02-15T03:46:48;100739.91;;;15.26;70.94
12182;BME280;6154;51.550;12.138;2024-02-15T03:49:18;100743.62;;;15.23;71.01
12182;BME280;6154;51.550;12.138;2024-02-15T03:51:49;100747.25;;;15.35;70.63
12182;BME280;6154;51.550;12.138;2024-02-15T03:54:16;100750.03;;;15.34;70.44
12182;BME280;6154;51.550;12.138;2024-02-15T03:56:48;100749.81;;;15.24;70.84
12182;BME280;6154;51.550;12.138;2024-02-15T03:59:20;100749.81;;;15.24;70.64
12182;BME280;6154;51.550;12.138;2024-02-15T04:01:52;100756.94;;;15.11;70.95
12182;BME280;6154;51.550;12.138;2024-02-15T04:04:21;100749.59;;;15.27;70.39
12182;BME280;6154;51.550;12.138;2024-02-15T04:06:51;100749.69;;;15.13;70.82
12182;BME280;6154;51.550;12.138;2024-02-15T04:09:19;100750.34;;;15.04;71.36
12182;BME280;6154;51.550;12.138;2024-02-15T04:11:48;100748.41;;;15.06;71.55
12182;BME280;6154;51.550;12.138;2024-02-15T04:14:20;100745.63;;;15.20;71.08
12182;BME280;6154;51.550;12.138;2024-02-15T04:16:48;100743.81;;;15.20;71.10
12182;BME280;6154;51.550;12.138;2024-02-15T04:19:16;100742.44;;;15.15;71.12
12182;BME280;6154;51.550;12.138;2024-02-15T04:21:47;100746.16;;;15.12;71.36
12182;BME280;6154;51.550;12.138;2024-02-15T04:24:17;100741.38;;;15.17;71.24
12182;BME280;6154;51.550;12.138;2024-02-15T04:26:47;100743.31;;;15.15;71.68
12182;BME280;6154;51.550;12.138;2024-02-15T04:29:15;100739.56;;;15.18;71.68
12182;BME280;6154;51.550;12.138;2024-02-15T04:31:45;100738.37;;;15.22;71.62
12182;BME280;6154;51.550;12.138;2024-02-15T04:34:16;100744.34;;;15.13;72.15
12182;BME280;6154;51.550;12.138;2024-02-15T04:36:47;100745.09;;;15.02;72.44
12182;BME280;6154;51.550;12.138;2024-02-15T04:39:18;100744.84;;;14.92;72.97
12182;BME280;6154;51.550;12.138;2024-02-15T04:41:54;100744.47;;;15.11;72.74
12182;BME280;6154;51.550;12.138;2024-02-15T04:44:22;100747.47;;;15.19;72.15
12182;BME280;6154;51.550;12.138;2024-02-15T04:46:54;100743.09;;;15.18;72.38
12182;BME280;6154;51.550;12.138;2024-02-15T04:49:24;100748.09;;;15.23;72.51
12182;BME280;6154;51.550;12.138;2024-02-15T04:51:53;100739.34;;;15.08;72.39
12182;BME280;6154;51.550;12.138;2024-02-15T04:54:22;100750.97;;;15.07;72.66
12182;BME280;6154;51.550;12.138;2024-02-15T04:56:50;100748.09;;;14.98;72.78
12182;BME280;6154;51.550;12.138;2024-02-15T04:59:20;100747.66;;;15.04;72.83
12182;BME280;6154;51.550;12.138;2024-02-15T05:01:52;100742.34;;;15.04;72.59
12182;BME280;6154;51.550;12.138;2024-02-15T05:04:20;100743.94;;;14.93;72.50
12182;BME280;6154;51.550;12.138;2024-02-15T05:06:49;100746.59;;;15.19;72.28
12182;BME280;6154;51.550;12.138;2024-02-15T05:09:17;100750.44;;;15.15;72.38
12182;BME280;6154;51.550;12.138;2024-02-15T05:11:46;100750.56;;;15.26;71.91
12182;BME280;6154;51.550;12.138;2024-02-15T05:14:15;100756.31;;;15.20;71.84
12182;BME280;6154;51.550;12.138;2024-02-15T05:16:46;100764.31;;;15.20;71.75
12182;BME280;6154;51.550;12.138;2024-02-15T05:19:15;100765.66;;;15.13;72.02
12182;BME280;6154;51.550;12.138;2024-02-15T05:21:44;100765.25;;;15.19;71.93
12182;BME280;6154;51.550;12.138;2024-02-15T05:24:13;100765.16;;;15.08;72.37
12182;BME280;6154;51.550;12.138;2024-02-15T05:26:43;100769.31;;;15.12;72.31
12182;BME280;6154;51.550;12.138;2024-02-15T05:29:15;100770.28;;;15.23;71.76
12182;BME280;6154;51.550;12.138;2024-02-15T05:31:43;100769.31;;;15.12;71.62
12182;BME280;6154;51.550;12.138;2024-02-15T05:34:12;100765.38;;;15.43;71.26
12182;BME280;6154;51.550;12.138;2024-02-15T05:36:40;100768.38;;;15.38;71.54
12182;BME280;6154;51.550;12.138;2024-02-15T05:39:08;100766.34;;;15.29;71.41
12182;BME280;6154;51.550;12.138;2024-02-15T05:41:38;100769.97;;;15.15;71.97
12182;BME280;6154;51.550;12.138;2024-02-15T05:44:07;100759.53;;;15.25;72.06
12182;BME280;6154;51.550;12.138;2024-02-15T05:46:37;100757.03;;;15.22;71.91
12182;BME280;6154;51.550;12.138;2024-02-15T05:49:07;100752.69;;;15.21;71.77
12182;BME280;6154;51.550;12.138;2024-02-15T05:51:40;100750.75;;;15.23;71.89
12182;BME280;6154;51.550;12.138;2024-02-15T05:54:11;100748.84;;;15.25;71.63
12182;BME280;6154;51.550;12.138;2024-02-15T05:56:39;100757.38;;;15.43;71.66
12182;BME280;6154;51.550;12.138;2024-02-15T05:59:09;100754.91;;;15.02;71.90
12182;BME280;6154;51.550;12.138;2024-02-15T06:01:39;100757.28;;;15.19;72.04
12182;BME280;6154;51.550;12.138;2024-02-15T06:04:08;100756.53;;;15.17;71.84
12182;BME280;6154;51.550;12.138;2024-02-15T06:06:36;100757.59;;;15.14;71.61
12182;BME280;6154;51.550;12.138;2024-02-15T06:09:05;100759.50;;;15.12;71.63
12182;BME280;6154;51.550;12.138;2024-02-15T06:11:33;100759.59;;;15.11;71.78
12182;BME280;6154;51.550;12.138;2024-02-15T06:14:02;100773.16;;;15.20;71.13
12182;BME280;6154;51.550;12.138;2024-02-15T06:16:30;100779.97;;;15.12;71.22
12182;BME280;6154;51.550;12.138;2024-02-15T06:19:00;100772.53;;;15.17;71.31
12182;BME280;6154;51.550;12.138;2024-02-15T06:21:29;100762.94;;;15.14;71.47
12182;BME280;6154;51.550;12.138;2024-02-15T06:23:57;100762.50;;;15.20;71.22
12182;BME280;6154;51.550;12.138;2024-02-15T06:26:25;100761.34;;;15.24;71.09
12182;BME280;6154;51.550;12.138;2024-02-15T06:28:53;100772.75;;;15.14;71.17
12182;BME280;6154;51.550;12.138;2024-02-15T06:31:38;100770.81;;;15.16;71.29
12182;BME280;6154;51.550;12.138;2024-02-15T06:34:26;100770.72;;;15.17;71.62
12182;BME280;6154;51.550;12.138;2024-02-15T06:37:35;100766.34;;;15.16;71.51
12182;BME280;6154;51.550;12.138;2024-02-15T06:40:21;100764.09;;;15.23;72.10
12182;BME280;6154;51.550;12.138;2024-02-15T06:42:50;100778.47;;;15.20;71.91
12182;BME280;6154;51.550;12.138;2024-02-15T06:45:18;100773.25;;;15.19;71.95
12182;BME280;6154;51.550;12.138;2024-02-15T06:47:46;100780.63;;;15.28;71.69
12182;BME280;6154;51.550;12.138;2024-02-15T06:50:16;100787.16;;;15.37;71.51
12182;BME280;6154;51.550;12.138;2024-02-15T06:52:44;100788.97;;;15.36;71.47
12182;BME280;6154;51.550;12.138;2024-02-15T06:55:16;100783.41;;;15.39;71.35
12182;BME280;6154;51.550;12.138;2024-02-15T06:57:45;100784.47;;;15.37;71.86
12182;BME280;6154;51.550;12.138;2024-02-15T07:00:14;100789.72;;;15.38;71.66
12182;BME280;6154;51.550;12.138;2024-02-15T07:02:43;100785.97;;;15.41;71.59
12182;BME280;6154;51.550;12.138;2024-02-15T07:05:11;100788.31;;;15.45;71.49
12182;BME280;6154;51.550;12.138;2024-02-15T07:07:41;100792.38;;;15.51;71.42
12182;BME280;6154;51.550;12.138;2024-02-15T07:10:10;100792.16;;;15.54;71.42
12182;BME280;6154;51.550;12.138;2024-02-15T07:12:40;100790.03;;;15.59;71.30
12182;BME280;6154;51.550;12.138;2024-02-15T07:15:10;100787.94;;;15.64;71.30
12182;BME280;6154;51.550;12.138;2024-02-15T07:17:38;100799.13;;;15.69;71.21
12182;BME280;6154;51.550;12.138;2024-02-15T07:20:09;100792.41;;;15.76;71.33
12182;BME280;6154;51.550;12.138;2024-02-15T07:22:38;100790.91;;;15.85;71.38
12182;BME280;6154;51.550;12.138;2024-02-15T07:25:07;100788.22;;;15.85;71.16
12182;BME280;6154;51.550;12.138;2024-02-15T07:27:37;100785.87;;;15.68;71.60
12182;BME280;6154;51.550;12.138;2024-02-15T07:30:07;100784.44;;;16.00;70.95
12182;BME280;6154;51.550;12.138;2024-02-15T07:32:35;100787.47;;;15.96;70.91
12182;BME280;6154;51.550;12.138;2024-02-15T07:35:04;100784.69;;;15.97;70.98
12182;BME280;6154;51.550;12.138;2024-02-15T07:37:35;100781.72;;;16.13;70.47
12182;BME280;6154;51.550;12.138;2024-02-15T07:40:04;100787.25;;;16.23;70.38
12182;BME280;6154;51.550;12.138;2024-02-15T07:42:35;100795.44;;;16.08;70.54
12182;BME280;6154;51.550;12.138;2024-02-15T07:45:04;100794.66;;;16.19;70.37
12182;BME280;6154;51.550;12.138;2024-02-15T07:47:33;100797.38;;;16.30;69.87
12182;BME280;6154;51.550;12.138;2024-02-15T07:50:01;100801.09;;;16.41;69.90
12182;BME280;6154;51.550;12.138;2024-02-15T07:52:30;100802.34;;;16.24;70.12
12182;BME280;6154;51.550;12.138;2024-02-15T07:55:00;100802.78;;;16.18;70.50
12182;BME280;6154;51.550;12.138;2024-02-15T07:57:28;100806.66;;;16.14;70.57
12182;BME280;6154;51.550;12.138;2024-02-15T07:59:58;100806.59;;;16.26;70.81
12182;BME280;6154;51.550;12.138;2024-02-15T08:02:26;100799.50;;;16.38;70.75
12182;BME280;6154;51.550;12.138;2024-02-15T08:04:55;100799.94;;;16.45;70.93
12182;BME280;6154;51.550;12.138;2024-02-15T08:07:23;100797.88;;;16.72;71.03
12182;BME280;6154;51.550;12.138;2024-02-15T08:09:52;100793.97;;;16.89;70.85
12182;BME280;6154;51.550;12.138;2024-02-15T08:12:21;100790.00;;;17.06;70.52
12182;BME280;6154;51.550;12.138;2024-02-15T08:14:49;100790.78;;;17.19;70.18
12182;BME280;6154;51.550;12.138;2024-02-15T08:17:18;100793.47;;;17.30;70.11
12182;BME280;6154;51.550;12.138;2024-02-15T08:19:46;100789.09;;;17.40;69.92
12182;BME280;6154;51.550;12.138;2024-02-15T08:22:14;100789.37;;;17.48;70.26
12182;BME280;6154;51.550;12.138;2024-02-15T08:24:42;100791.12;;;17.72;70.56
12182;BME280;6154;51.550;12.138;2024-02-15T08:27:11;100788.34;;;17.85;69.93
12182;BME280;6154;51.550;12.138;2024-02-15T08:29:39;100790.22;;;17.60;69.99
12182;BME280;6154;51.550;12.138;2024-02-15T08:32:07;100792.78;;;17.62;70.38
12182;BME280;6154;51.550;12.138;2024-02-15T08:34:37;100794.75;;;17.71;70.34
12182;BME280;6154;51.550;12.138;2024-02-15T08:37:06;100790.16;;;17.84;69.95
12182;BME280;6154;51.550;12.138;2024-02-15T08:39:34;100791.97;;;17.84;69.95
12182;BME280;6154;51.550;12.138;2024-02-15T08:42:03;100793.69;;;17.85;70.03
12182;BME280;6154;51.550;12.138;2024-02-15T08:44:31;100788.81;;;17.78;70.01
12182;BME280;6154;51.550;12.138;2024-02-15T08:47:00;100794.41;;;17.75;69.99
12182;BME280;6154;51.550;12.138;2024-02-15T08:49:28;100797.09;;;17.75;69.86
12182;BME280;6154;51.550;12.138;2024-02-15T08:51:59;100790.75;;;17.76;69.99
12182;BME280;6154;51.550;12.138;2024-02-15T08:54:27;100788.56;;;17.81;69.86
12182;BME280;6154;51.550;12.138;2024-02-15T08:56:55;100788.34;;;17.85;69.95
12182;BME280;6154;51.550;12.138;2024-02-15T08:59:23;100787.47;;;17.95;70.15
12182;BME280;6154;51.550;12.138;2024-02-15T09:01:51;100795.00;;;18.01;70.08
12182;BME280;6154;51.550;12.138;2024-02-15T09:04:21;100783.94;;;18.06;69.95
12182;BME280;6154;51.550;12.138;2024-02-15T09:06:51;100782.22;;;18.05;70.06
12182;BME280;6154;51.550;12.138;2024-02-15T09:09:20;100782.81;;;18.08;70.10
12182;BME280;6154;51.550;12.138;2024-02-15T09:11:48;100779.03;;;18.11;69.97
12182;BME280;6154;51.550;12.138;2024-02-15T09:14:16;100779.50;;;18.27;69.77
12182;BME280;6154;51.550;12.138;2024-02-15T09:16:44;100780.09;;;18.31;69.46
12182;BME280;6154;51.550;12.138;2024-02-15T09:19:12;100778.53;;;18.28;69.18
12182;BME280;6154;51.550;12.138;2024-02-15T09:21:41;100778.50;;;18.39;69.43
12182;BME280;6154;51.550;12.138;2024-02-15T09:24:09;100785.56;;;18.41;69.15
12182;BME280;6154;51.550;12.138;2024-02-15T09:26:38;100787.25;;;18.42;69.17
12182;BME280;6154;51.550;12.138;2024-02-15T09:29:06;100787.66;;;18.80;68.17
12182;BME280;6154;51.550;12.138;2024-02-15T09:31:34;100790.91;;;18.41;69.20
12182;BME280;6154;51.550;12.138;2024-02-15T09:34:03;100797.75;;;18.45;69.21
12182;BME280;6154;51.550;12.138;2024-02-15T09:36:34;100788.59;;;18.47;69.17
12182;BME280;6154;51.550;12.138;2024-02-15T09:39:02;100793.09;;;18.90;68.53
12182;BME280;6154;51.550;12.138;2024-02-15T09:41:30;100789.78;;;18.98;67.36
12182;BME280;6154;51.550;12.138;2024-02-15T09:44:00;100793.53;;;19.06;67.10
12182;BME280;6154;51.550;12.138;2024-02-15T09:46:34;100792.66;;;19.06;67.28
12182;BME280;6154;51.550;12.138;2024-02-15T09:49:03;100793.72;;;18.82;67.44
12182;BME280;6154;51.550;12.138;2024-02-15T09:51:34;100799.72;;;19.07;68.19
12182;BME280;6154;51.550;12.138;2024-02-15T09:54:04;100798.31;;;18.91;67.97
12182;BME280;6154;51.550;12.138;2024-02-15T09:56:33;100795.91;;;18.88;68.19
12182;BME280;6154;51.550;12.138;2024-02-15T09:59:04;100793.81;;;19.13;67.78
12182;BME280;6154;51.550;12.138;2024-02-15T10:01:34;100800.44;;;19.09;67.88
12182;BME280;6154;51.550;12.138;2024-02-15T10:04:04;100797.50;;;19.12;68.16
12182;BME280;6154;51.550;12.138;2024-02-15T10:06:33;100806.47;;;19.01;68.24
12182;BME280;6154;51.550;12.138;2024-02-15T10:09:23;100801.62;;;19.16;67.86
12182;BME280;6154;51.550;12.138;2024-02-15T10:11:54;100811.06;;;19.31;67.11
12182;BME280;6154;51.550;12.138;2024-02-15T10:14:24;100800.19;;;19.33;67.39
12182;BME280;6154;51.550;12.138;2024-02-15T10:16:53;100799.09;;;19.35;67.37
12182;BME280;6154;51.550;12.138;2024-02-15T10:19:22;100804.38;;;19.46;67.39
12182;BME280;6154;51.550;12.138;2024-02-15T10:21:51;100800.16;;;19.53;67.37
12182;BME280;6154;51.550;12.138;2024-02-15T10:24:23;100803.78;;;19.64;67.27
12182;BME280;6154;51.550;12.138;2024-02-15T10:26:51;100799.41;;;19.63;67.41
12182;BME280;6154;51.550;12.138;2024-02-15T10:29:19;100803.06;;;19.62;67.49
12182;BME280;6154;51.550;12.138;2024-02-15T10:31:56;100806.47;;;19.64;67.29
12182;BME280;6154;51.550;12.138;2024-02-15T10:34:25;100802.78;;;19.86;66.88
12182;BME280;6154;51.550;12.138;2024-02-15T10:36:55;100797.69;;;19.92;66.71
12182;BME280;6154;51.550;12.138;2024-02-15T10:39:23;100802.94;;;19.94;66.51
12182;BME280;6154;51.550;12.138;2024-02-15T10:41:54;100798.44;;;19.94;66.65
12182;BME280;6154;51.550;12.138;2024-02-15T10:44:23;100796.19;;;19.69;66.19
12182;BME280;6154;51.550;12.138;2024-02-15T10:46:54;100804.47;;;19.87;66.55
12182;BME280;6154;51.550;12.138;2024-02-15T10:49:23;100793.41;;;19.80;66.27
12182;BME280;6154;51.550;12.138;2024-02-15T10:51:55;100798.78;;;19.80;66.44
12182;BME280;6154;51.550;12.138;2024-02-15T10:54:35;100790.81;;;19.69;66.27
12182;BME280;6154;51.550;12.138;2024-02-15T10:57:06;100786.72;;;19.53;66.32
12182;BME280;6154;51.550;12.138;2024-02-15T10:59:38;100787.84;;;19.51;66.78
12182;BME280;6154;51.550;12.138;2024-02-15T11:02:25;100784.59;;;19.47;66.98
12182;BME280;6154;51.550;12.138;2024-02-15T11:04:55;100774.44;;;19.51;65.93
12182;BME280;6154;51.550;12.138;2024-02-15T11:07:30;100778.66;;;19.65;66.57
12182;BME280;6154;51.550;12.138;2024-02-15T11:09:59;100769.63;;;19.66;66.24
12182;BME280;6154;51.550;12.138;2024-02-15T11:12:28;100767.31;;;19.40;67.36
12182;BME280;6154;51.550;12.138;2024-02-15T11:14:57;100767.44;;;19.39;67.27
12182;BME280;6154;51.550;12.138;2024-02-15T11:17:46;100762.25;;;19.68;66.63
12182;BME280;6154;51.550;12.138;2024-02-15T11:20:46;100749.31;;;19.83;65.86
12182;BME280;6154;51.550;12.138;2024-02-15T11:23:26;100746.63;;;19.83;65.32
12182;BME280;6154;51.550;12.138;2024-02-15T11:26:04;100747.50;;;19.93;65.91
12182;BME280;6154;51.550;12.138;2024-02-15T11:28:43;100747.81;;;19.99;65.50
12182;BME280;6154;51.550;12.138;2024-02-15T11:31:54;100742.66;;;20.27;65.49
12182;BME280;6154;51.550;12.138;2024-02-15T11:34:45;100739.44;;;20.62;64.08
12182;BME280;6154;51.550;12.138;2024-02-15T11:37:48;100738.81;;;20.20;65.23
12182;BME280;6154;51.550;12.138;2024-02-15T11:40:19;100739.25;;;20.25;66.04
12182;BME280;6154;51.550;12.138;2024-02-15T11:42:50;100744.91;;;20.41;66.63
12182;BME280;6154;51.550;12.138;2024-02-15T11:45:20;100743.81;;;20.53;66.65
12182;BME280;6154;51.550;12.138;2024-02-15T11:47:50;100732.50;;;20.69;66.26
12182;BME280;6154;51.550;12.138;2024-02-15T11:50:21;100732.50;;;20.88;66.52
12182;BME280;6154;51.550;12.138;2024-02-15T11:52:50;100729.94;;;21.06;65.29
12182;BME280;6154;51.550;12.138;2024-02-15T11:55:20;100727.91;;;21.37;64.93
12182;BME280;6154;51.550;12.138;2024-02-15T11:57:56;100730.38;;;21.58;64.60
12182;BME280;6154;51.550;12.138;2024-02-15T12:00:30;100725.34;;;21.73;64.16
12182;BME280;6154;51.550;12.138;2024-02-15T12:03:17;100725.50;;;21.71;64.51
12182;BME280;6154;51.550;12.138;2024-02-15T12:06:04;100722.69;;;21.63;64.10
12182;BME280;6154;51.550;12.138;2024-02-15T12:08:51;100718.09;;;22.01;62.32
12182;BME280;6154;51.550;12.138;2024-02-15T12:11:37;100725.66;;;21.97;62.57
12182;BME280;6154;51.550;12.138;2024-02-15T12:14:24;100725.37;;;21.91;62.49
12182;BME280;6154;51.550;12.138;2024-02-15T12:17:11;100726.09;;;21.65;63.00
12182;BME280;6154;51.550;12.138;2024-02-15T12:20:00;100710.28;;;21.43;62.96
12182;BME280;6154;51.550;12.138;2024-02-15T12:22:36;100700.16;;;21.27;62.11
12182;BME280;6154;51.550;12.138;2024-02-15T12:25:08;100694.28;;;21.41;62.55
12182;BME280;6154;51.550;12.138;2024-02-15T12:27:41;100694.44;;;21.40;62.62
12182;BME280;6154;51.550;12.138;2024-02-15T12:30:13;100695.03;;;21.14;62.65
12182;BME280;6154;51.550;12.138;2024-02-15T12:32:42;100691.81;;;21.01;62.72
12182;BME280;6154;51.550;12.138;2024-02-15T12:35:12;100697.50;;;20.98;63.40
12182;BME280;6154;51.550;12.138;2024-02-15T12:37:45;100699.06;;;20.91;63.70
12182;BME280;6154;51.550;12.138;2024-02-15T12:40:15;100694.28;;;20.85;63.74
12182;BME280;6154;51.550;12.138;2024-02-15T12:42:45;100688.91;;;20.85;64.71
12182;BME280;6154;51.550;12.138;2024-02-15T12:45:17;100687.44;;;21.00;64.05
12182;BME280;6154;51.550;12.138;2024-02-15T12:47:49;100681.78;;;20.93;63.92
12182;BME280;6154;51.550;12.138;2024-02-15T12:50:19;100690.28;;;20.89;64.18
12182;BME280;6154;51.550;12.138;2024-02-15T12:52:50;100693.12;;;20.87;64.06
12182;BME280;6154;51.550;12.138;2024-02-15T12:55:22;100684.19;;;20.97;64.06
12182;BME280;6154;51.550;12.138;2024-02-15T12:57:52;100693.00;;;20.89;64.10
12182;BME280;6154;51.550;12.138;2024-02-15T13:00:23;100691.88;;;20.72;64.78
12182;BME280;6154;51.550;12.138;2024-02-15T13:02:55;100687.94;;;21.23;63.46
12182;BME280;6154;51.550;12.138;2024-02-15T13:05:25;100686.09;;;21.33;63.43
12182;BME280;6154;51.550;12.138;2024-02-15T13:07:55;100687.13;;;21.03;64.36